Time;durP1;ratioP1;P1;durP2;ratioP2;P2;SDS_P1;SDS_P2;PMS_P1;PMS_P2;Temp;Humidity;BMP_temperature;BMP_pressure;BME280_temperature;BME280_humidity;BME280_pressure;Samples;Min_cycle;Max_cycle;Signal;HPM_P1;HPM_P2
2022/05/12 00:01:45;;;;;;;0.30;0.30;;;11.90;99.90;;;;;;5075084;28;20146;-80
2022/05/12 00:04:11;;;;;;;0.30;0.30;;;11.80;99.90;;;;;;5075171;28;20389;-79
2022/05/12 00:06:36;;;;;;;0.40;0.40;;;11.80;99.90;;;;;;5074915;28;20396;-79
2022/05/12 00:09:02;;;;;;;0.30;0.30;;;11.70;99.90;;;;;;5074847;28;20123;-80
2022/05/12 00:11:30;;;;;;;0.30;0.30;;;11.70;99.90;;;;;;5073655;28;20463;-79
2022/05/12 00:13:56;;;;;;;0.40;0.40;;;11.70;99.90;;;;;;5075195;28;20052;-79
2022/05/12 00:16:22;;;;;;;0.30;0.30;;;11.60;99.90;;;;;;5074791;28;20094;-77
2022/05/12 00:18:48;;;;;;;0.30;0.30;;;11.60;99.90;;;;;;5074615;28;20446;-80
2022/05/12 00:21:14;;;;;;;0.30;0.30;;;11.50;99.90;;;;;;5074201;28;20036;-80
2022/05/12 00:23:39;;;;;;;1.60;1.50;;;11.50;99.90;;;;;;5074685;28;20044;-79
2022/05/12 00:26:05;;;;;;;0.30;0.30;;;11.40;99.90;;;;;;5074910;28;20047;-80
2022/05/12 00:28:30;;;;;;;3.38;0.45;;;11.40;99.90;;;;;;5074465;28;20473;-78
2022/05/12 00:30:58;;;;;;;0.40;0.40;;;11.30;99.90;;;;;;5074543;28;20401;-79
2022/05/12 00:33:27;;;;;;;0.40;0.40;;;11.30;99.90;;;;;;5073158;28;20041;-79
2022/05/12 00:35:55;;;;;;;0.30;0.30;;;11.30;99.90;;;;;;5074245;28;20048;-77
2022/05/12 00:38:20;;;;;;;0.30;0.30;;;11.20;99.90;;;;;;5073671;28;20083;-77
2022/05/12 00:40:47;;;;;;;0.30;0.30;;;11.10;99.90;;;;;;5073150;28;20036;-77
2022/05/12 00:43:35;;;;;;;0.30;0.30;;;11.10;99.90;;;;;;5074255;28;20435;-80
2022/05/12 00:46:02;;;;;;;0.30;0.30;;;11.10;99.90;;;;;;5074267;28;20052;-78
2022/05/12 00:48:27;;;;;;;0.40;0.40;;;11.00;99.90;;;;;;5072894;28;20044;-78
2022/05/12 00:50:53;;;;;;;0.30;0.30;;;11.00;99.90;;;;;;5073094;28;20499;-79
2022/05/12 00:53:20;;;;;;;0.30;0.30;;;11.00;99.90;;;;;;5074410;28;20549;-78
2022/05/12 00:55:45;;;;;;;;;;;11.00;99.90;;;;;;5074515;28;20048;-78
2022/05/12 00:58:15;;;;;;;0.40;0.40;;;11.00;99.90;;;;;;5074034;28;20265;-80
2022/05/12 01:00:41;;;;;;;0.30;0.30;;;10.90;99.90;;;;;;5074076;28;20052;-78
2022/05/12 01:03:11;;;;;;;0.30;0.30;;;10.90;99.90;;;;;;5074021;28;20044;-78
2022/05/12 01:05:38;;;;;;;0.40;0.40;;;10.90;99.90;;;;;;5073965;28;20132;-80
2022/05/12 01:08:04;;;;;;;0.30;0.30;;;10.80;99.90;;;;;;5074009;28;20154;-81
2022/05/12 01:10:30;;;;;;;0.40;0.40;;;10.80;99.90;;;;;;5074253;28;20051;-80
2022/05/12 01:12:56;;;;;;;0.30;0.30;;;10.80;99.90;;;;;;5074049;28;20389;-79
2022/05/12 01:15:24;;;;;;;0.40;0.40;;;10.80;99.90;;;;;;5073950;28;20078;-78
2022/05/12 01:17:59;;;;;;;0.47;0.47;;;10.70;99.90;;;;;;5073894;28;20124;-79
2022/05/12 01:20:25;;;;;;;0.30;0.30;;;10.70;99.90;;;;;;5074152;28;20082;-79
2022/05/12 01:22:56;;;;;;;0.32;0.32;;;10.70;99.90;;;;;;5073860;28;20036;-79
2022/05/12 01:25:26;;;;;;;0.30;0.30;;;10.60;99.90;;;;;;5074074;28;20481;-79
2022/05/12 01:27:52;;;;;;;0.40;0.40;;;10.60;99.90;;;;;;5073669;28;20056;-79
2022/05/12 01:30:23;;;;;;;0.40;0.40;;;10.60;99.90;;;;;;5073617;28;20044;-79
2022/05/12 01:32:49;;;;;;;0.30;0.30;;;10.50;99.90;;;;;;5073384;28;20469;-82
2022/05/12 01:35:17;;;;;;;0.30;0.30;;;10.50;99.90;;;;;;5072428;28;20041;-79
2022/05/12 01:37:44;;;;;;;0.30;0.30;;;10.50;99.90;;;;;;5073660;28;20080;-78
2022/05/12 01:40:13;;;;;;;0.30;0.30;;;10.50;99.90;;;;;;5073529;28;20049;-80
2022/05/12 01:42:39;;;;;;;0.30;0.30;;;10.50;99.90;;;;;;5073538;28;20400;-79
2022/05/12 01:45:06;;;;;;;0.30;0.30;;;10.40;99.90;;;;;;5073773;28;20048;-81
2022/05/12 01:47:33;;;;;;;0.85;0.50;;;10.40;99.90;;;;;;5073413;28;20056;-78
2022/05/12 01:49:59;;;;;;;0.40;0.40;;;10.40;99.90;;;;;;5074762;28;20076;-79
2022/05/12 01:52:25;;;;;;;0.30;0.30;;;10.40;99.90;;;;;;5060233;28;20550;-81
2022/05/12 01:54:51;;;;;;;0.30;0.30;;;10.30;99.90;;;;;;5077458;28;20048;-78
2022/05/12 01:57:16;;;;;;;0.40;0.40;;;10.30;99.90;;;;;;5077412;28;20166;-79
2022/05/12 01:59:42;;;;;;;0.30;0.30;;;10.30;99.90;;;;;;5077330;28;20131;-81
2022/05/12 02:02:07;;;;;;;0.30;0.30;;;10.20;99.90;;;;;;5077451;28;20526;-79
2022/05/12 02:04:33;;;;;;;0.40;0.40;;;10.20;99.90;;;;;;5077261;28;20056;-81
2022/05/12 02:06:58;;;;;;;0.40;0.40;;;10.20;99.90;;;;;;5076201;28;20047;-79
2022/05/12 02:09:24;;;;;;;0.40;0.40;;;10.20;99.90;;;;;;5077310;28;20047;-81
2022/05/12 02:11:49;;;;;;;0.30;0.30;;;10.10;99.90;;;;;;5076823;28;20052;-79
2022/05/12 02:14:15;;;;;;;0.30;0.30;;;10.10;99.90;;;;;;5077070;28;20416;-80
2022/05/12 02:16:41;;;;;;;0.40;0.40;;;10.10;99.90;;;;;;5076947;28;20044;-79
2022/05/12 02:19:08;;;;;;;0.38;0.38;;;10.00;99.90;;;;;;5077428;28;20083;-80
2022/05/12 02:21:34;;;;;;;0.30;0.30;;;10.00;99.90;;;;;;5075817;28;20044;-80
2022/05/12 02:24:00;;;;;;;0.30;0.30;;;10.00;99.90;;;;;;5076847;28;20080;-79
2022/05/12 02:26:27;;;;;;;0.30;0.30;;;10.00;99.90;;;;;;5075954;28;20040;-78
2022/05/12 02:28:52;;;;;;;0.30;0.30;;;10.00;99.90;;;;;;5076701;28;20345;-79
2022/05/12 02:31:18;;;;;;;0.40;0.40;;;10.00;99.90;;;;;;5059080;28;20040;-79
2022/05/12 02:33:44;;;;;;;0.40;0.40;;;9.90;99.90;;;;;;5076518;28;20374;-77
2022/05/12 02:36:09;;;;;;;0.30;0.30;;;9.90;99.90;;;;;;5076502;28;20053;-80
2022/05/12 02:38:35;;;;;;;0.40;0.40;;;9.90;99.90;;;;;;5075624;28;20058;-79
2022/05/12 02:41:01;;;;;;;0.30;0.30;;;9.90;99.90;;;;;;5076427;28;20051;-77
2022/05/12 02:43:29;;;;;;;0.40;0.40;;;9.80;99.90;;;;;;5076075;28;20044;-79
2022/05/12 02:45:54;;;;;;;0.40;0.40;;;9.80;99.90;;;;;;5076293;28;20128;-77
2022/05/12 02:48:22;;;;;;;0.32;0.32;;;9.80;99.90;;;;;;5076266;28;20084;-77
2022/05/12 02:50:48;;;;;;;0.32;0.32;;;9.80;99.90;;;;;;5075854;28;20041;-80
2022/05/12 02:53:14;;;;;;;0.30;0.30;;;9.70;99.90;;;;;;5076229;28;20041;-80
2022/05/12 02:55:40;;;;;;;0.40;0.40;;;9.70;99.90;;;;;;5076206;28;20045;-80
2022/05/12 02:58:05;;;;;;;0.30;0.30;;;9.70;99.90;;;;;;5076126;28;20123;-78
2022/05/12 03:00:33;;;;;;;0.43;0.43;;;9.70;99.90;;;;;;5075743;28;20052;-79
2022/05/12 03:02:59;;;;;;;0.30;0.30;;;9.70;99.90;;;;;;5076217;28;20071;-79
2022/05/12 03:05:26;;;;;;;0.40;0.40;;;9.60;99.90;;;;;;5076151;28;20084;-78
2022/05/12 03:07:52;;;;;;;0.40;0.40;;;9.60;99.90;;;;;;5075135;28;20048;-78
2022/05/12 03:10:18;;;;;;;0.40;0.40;;;9.60;99.90;;;;;;5076412;28;20041;-79
2022/05/12 03:12:43;;;;;;;0.40;0.40;;;9.50;99.90;;;;;;5075742;28;20049;-78
2022/05/12 03:15:10;;;;;;;0.40;0.40;;;9.50;99.90;;;;;;5076232;28;20481;-78
2022/05/12 03:17:36;;;;;;;0.40;0.40;;;9.50;99.90;;;;;;5076177;28;20048;-79
2022/05/12 03:20:05;;;;;;;0.40;0.40;;;9.40;99.90;;;;;;5075808;28;20040;-79
2022/05/12 03:22:30;;;;;;;0.40;0.40;;;9.40;99.90;;;;;;5075679;28;20647;-80
2022/05/12 03:24:56;;;;;;;0.57;0.57;;;9.40;99.90;;;;;;5075742;28;20040;-77
2022/05/12 03:27:22;;;;;;;0.40;0.40;;;9.40;99.90;;;;;;5075409;28;20040;-80
2022/05/12 03:29:48;;;;;;;0.30;0.30;;;9.30;99.90;;;;;;5075624;28;20043;-80
2022/05/12 03:32:13;;;;;;;0.40;0.40;;;9.30;99.90;;;;;;5075496;28;20051;-79
2022/05/12 03:34:40;;;;;;;0.40;0.40;;;9.30;99.90;;;;;;5075674;28;20377;-80
2022/05/12 03:37:07;;;;;;;0.40;0.40;;;9.20;99.90;;;;;;5075538;28;20076;-78
2022/05/12 03:39:33;;;;;;;0.40;0.40;;;9.20;99.90;;;;;;5075371;28;20080;-79
2022/05/12 03:41:59;;;;;;;0.40;0.40;;;9.10;99.90;;;;;;5075415;28;20430;-80
2022/05/12 03:47:12;;;;;;;0.55;0.55;;;9.10;99.90;;;;;;5075572;28;20060;-79
2022/05/12 03:49:38;;;;;;;0.40;0.40;;;9.10;99.90;;;;;;5075301;28;20058;-78
2022/05/12 03:52:04;;;;;;;0.40;0.40;;;9.10;99.90;;;;;;5075142;28;20044;-79
2022/05/12 03:54:30;;;;;;;0.40;0.40;;;9.10;99.90;;;;;;5075113;28;20063;-80
2022/05/12 03:56:55;;;;;;;1.30;0.95;;;9.00;99.90;;;;;;5074951;28;20052;-78
2022/05/12 03:59:21;;;;;;;0.40;0.40;;;9.00;99.90;;;;;;5075020;28;20064;-80
2022/05/12 04:01:46;;;;;;;0.40;0.40;;;9.00;99.90;;;;;;5074979;28;20499;-79
2022/05/12 04:04:13;;;;;;;0.40;0.40;;;9.10;99.90;;;;;;5075009;28;20082;-80
2022/05/12 04:06:38;;;;;;;0.40;0.40;;;9.10;99.90;;;;;;5074941;28;20047;-82
2022/05/12 04:09:04;;;;;;;0.40;0.40;;;9.10;99.90;;;;;;5074849;28;20127;-80
2022/05/12 04:11:30;;;;;;;0.40;0.40;;;9.10;99.90;;;;;;5074844;28;20148;-78
2022/05/12 04:13:56;;;;;;;0.40;0.40;;;9.10;99.90;;;;;;5072190;28;20048;-80
2022/05/12 04:16:22;;;;;;;0.40;0.40;;;9.10;99.90;;;;;;5074528;28;20040;-78
2022/05/12 04:18:48;;;;;;;0.40;0.40;;;9.10;99.90;;;;;;5074681;28;20044;-78
2022/05/12 04:21:16;;;;;;;0.40;0.40;;;9.10;99.90;;;;;;5074607;28;20473;-80
2022/05/12 04:23:42;;;;;;;0.40;0.40;;;9.10;99.90;;;;;;5074562;28;20118;-80
2022/05/12 04:26:07;;;;;;;0.50;0.50;;;9.10;99.90;;;;;;5074490;28;20481;-80
2022/05/12 04:28:33;;;;;;;0.40;0.40;;;9.10;99.90;;;;;;5074474;28;20085;-80
2022/05/12 04:30:59;;;;;;;0.40;0.40;;;9.20;99.90;;;;;;5074483;28;20131;-78
2022/05/12 04:36:08;;;;;;;0.40;0.40;;;9.20;99.90;;;;;;5074340;28;20048;-78
2022/05/12 04:38:34;;;;;;;0.40;0.40;;;9.20;99.90;;;;;;5074245;28;20041;-79
2022/05/12 04:40:59;;;;;;;0.40;0.40;;;9.30;99.90;;;;;;5074328;28;20118;-79
2022/05/12 04:43:27;;;;;;;0.40;0.40;;;9.30;99.90;;;;;;5074194;28;20048;-79
2022/05/12 04:45:52;;;;;;;0.40;0.40;;;9.40;99.90;;;;;;5074217;28;20084;-80
2022/05/12 04:48:18;;;;;;;0.45;0.45;;;9.40;99.90;;;;;;5074156;28;20048;-80
2022/05/12 04:50:44;;;;;;;0.40;0.40;;;9.40;99.90;;;;;;5072934;28;20081;-78
2022/05/12 04:53:10;;;;;;;0.85;0.85;;;9.40;99.90;;;;;;5073167;28;20455;-78
2022/05/12 04:55:36;;;;;;;0.40;0.40;;;9.50;99.90;;;;;;5073210;28;20087;-79
2022/05/12 04:58:02;;;;;;;0.40;0.40;;;9.60;99.90;;;;;;5074012;28;20055;-80
2022/05/12 05:00:32;;;;;;;0.40;0.40;;;9.60;99.90;;;;;;5074076;28;20044;-78
2022/05/12 05:02:57;;;;;;;0.40;0.40;;;9.60;99.90;;;;;;5073865;28;20132;-78
2022/05/12 05:05:23;;;;;;;0.40;0.40;;;9.70;99.90;;;;;;5073770;28;20123;-78
2022/05/12 05:07:49;;;;;;;0.40;0.40;;;9.80;99.90;;;;;;5073762;28;20485;-78
2022/05/12 05:10:15;;;;;;;0.40;0.40;;;9.90;99.90;;;;;;5073817;28;20079;-79
2022/05/12 05:12:41;;;;;;;0.40;0.40;;;9.90;99.90;;;;;;5073738;28;20064;-79
2022/05/12 05:15:09;;;;;;;0.80;0.80;;;10.00;99.90;;;;;;5073923;28;20045;-78
2022/05/12 05:17:37;;;;;;;0.40;0.40;;;10.00;99.90;;;;;;5073858;28;20102;-80
2022/05/12 05:20:06;;;;;;;1.08;0.98;;;10.00;99.90;;;;;;5073608;28;20060;-79
2022/05/12 05:22:36;;;;;;;0.40;0.40;;;10.10;99.90;;;;;;5073610;28;20043;-78
2022/05/12 05:25:03;;;;;;;0.40;0.40;;;10.20;99.90;;;;;;5073313;28;20052;-79
2022/05/12 05:27:28;;;;;;;0.40;0.40;;;10.20;99.90;;;;;;5073549;28;20083;-78
2022/05/12 05:29:54;;;;;;;0.40;0.40;;;10.30;99.90;;;;;;5073581;28;20047;-78
2022/05/12 05:32:20;;;;;;;1.55;1.50;;;10.30;99.90;;;;;;5055574;28;20052;-78
2022/05/12 05:34:46;;;;;;;0.70;0.70;;;10.40;99.90;;;;;;5073544;28;20055;-79
2022/05/12 05:37:12;;;;;;;0.70;0.70;;;10.50;99.90;;;;;;5073563;28;20048;-80
2022/05/12 05:39:38;;;;;;;0.30;0.30;;;10.60;99.90;;;;;;5073604;28;20045;-81
2022/05/12 05:42:07;;;;;;;0.50;0.50;;;10.80;99.90;;;;;;5073278;28;20045;-77
2022/05/12 05:44:32;;;;;;;0.40;0.40;;;11.00;99.90;;;;;;5073734;28;20091;-77
2022/05/12 05:47:00;;;;;;;0.40;0.40;;;11.10;99.90;;;;;;5073626;28;20080;-78
2022/05/12 05:49:27;;;;;;;0.40;0.40;;;11.10;99.90;;;;;;5073373;28;20109;-77
2022/05/12 05:54:36;;;;;;;0.40;0.40;;;11.40;99.90;;;;;;5073868;28;20092;-78
2022/05/12 05:57:03;;;;;;;0.30;0.30;;;11.60;99.90;;;;;;5073446;28;20573;-78
2022/05/12 05:59:29;;;;;;;0.30;0.30;;;11.80;99.90;;;;;;5073506;28;20052;-77
2022/05/12 06:01:54;;;;;;;0.40;0.40;;;11.90;99.90;;;;;;5073372;28;20492;-78
2022/05/12 06:04:20;;;;;;;0.40;0.40;;;12.10;99.90;;;;;;5073302;28;20041;-77
2022/05/12 06:06:46;;;;;;;0.70;0.70;;;12.30;99.90;;;;;;5073515;28;20388;-82
2022/05/12 06:09:12;;;;;;;0.30;0.30;;;12.50;99.90;;;;;;5073288;28;20045;-83
2022/05/12 06:11:38;;;;;;;0.30;0.30;;;12.70;99.90;;;;;;5072322;28;20457;-81
2022/05/12 06:14:04;;;;;;;0.30;0.30;;;12.80;99.90;;;;;;5072727;28;20139;-78
2022/05/12 06:16:31;;;;;;;0.30;0.30;;;13.10;99.90;;;;;;5073226;28;20091;-80
2022/05/12 06:18:56;;;;;;;0.40;0.40;;;13.20;99.90;;;;;;5073250;28;20048;-79
2022/05/12 06:21:22;;;;;;;0.30;0.30;;;13.20;99.90;;;;;;5071884;28;20527;-84
2022/05/12 06:23:48;;;;;;;0.80;0.80;;;13.40;99.90;;;;;;5072029;28;20464;-83
2022/05/12 06:26:14;;;;;;;0.35;0.35;;;13.40;99.90;;;;;;5072374;28;20044;-79
2022/05/12 06:28:45;;;;;;;0.50;0.50;;;13.50;99.90;;;;;;5072371;28;20392;-77
2022/05/12 06:31:15;;;;;;;0.40;0.40;;;13.50;99.90;;;;;;5073192;28;20173;-81
2022/05/12 06:33:41;;;;;;;0.40;0.40;;;13.50;99.90;;;;;;5072152;28;20052;-78
2022/05/12 06:36:07;;;;;;;0.70;0.70;;;13.60;99.90;;;;;;5073914;28;20051;-79
2022/05/12 06:38:34;;;;;;;0.50;0.50;;;13.70;99.90;;;;;;5075624;28;20102;-78
2022/05/12 06:41:00;;;;;;;0.50;0.50;;;13.80;99.90;;;;;;5075361;28;20049;-79
2022/05/12 06:43:26;;;;;;;0.45;0.45;;;13.80;99.90;;;;;;5076557;28;20040;-78
2022/05/12 06:45:54;;;;;;;0.30;0.30;;;13.90;99.90;;;;;;5076327;28;20044;-79
2022/05/12 06:48:20;;;;;;;0.75;0.75;;;14.00;99.90;;;;;;5076454;28;20052;-87
2022/05/12 06:50:47;;;;;;;0.60;0.60;;;14.10;99.90;;;;;;5075613;28;20511;-83
2022/05/12 06:53:13;;;;;;;0.30;0.30;;;14.20;99.90;;;;;;5076675;28;20057;-85
2022/05/12 06:55:39;;;;;;;0.30;0.30;;;14.40;99.90;;;;;;5075144;28;20052;-83
2022/05/12 06:58:04;;;;;;;0.30;0.30;;;14.40;99.90;;;;;;5075160;28;20400;-79
2022/05/12 07:00:30;;;;;;;0.57;0.57;;;14.50;99.90;;;;;;5075231;28;20048;-80
2022/05/12 07:02:56;;;;;;;0.30;0.30;;;14.70;99.90;;;;;;5075254;28;20064;-80
2022/05/12 07:05:25;;;;;;;0.40;0.40;;;14.70;99.90;;;;;;5075126;28;20119;-83
2022/05/12 07:07:51;;;;;;;0.30;0.30;;;14.90;99.90;;;;;;5076023;28;20474;-81
2022/05/12 07:10:19;;;;;;;0.38;0.38;;;15.10;99.90;;;;;;5058675;28;20051;-82
2022/05/12 07:12:44;;;;;;;0.30;0.30;;;15.20;99.90;;;;;;5074716;28;20488;-79
2022/05/12 07:15:11;;;;;;;0.30;0.30;;;15.30;99.90;;;;;;5076028;28;20135;-82
2022/05/12 07:17:38;;;;;;;;;;;15.50;99.90;;;;;;5076044;28;20411;-85
2022/05/12 07:28:19;;;;;;;0.40;0.40;;;15.80;99.90;;;;;;5075179;28;20052;-81
2022/05/12 07:31:03;;;;;;;0.67;0.50;;;15.90;99.90;;;;;;5057917;28;20040;-82
2022/05/12 07:33:38;;;;;;;0.30;0.30;;;16.00;99.90;;;;;;5074439;28;20051;-82
2022/05/12 07:36:09;;;;;;;0.30;0.30;;;16.00;99.90;;;;;;5075414;28;20045;-80
2022/05/12 07:38:35;;;;;;;1.27;0.68;;;16.20;99.90;;;;;;5075897;28;20119;-81
2022/05/12 07:41:01;;;;;;;0.30;0.30;;;16.20;99.90;;;;;;5057826;28;20198;-82
2022/05/12 07:43:27;;;;;;;0.37;0.37;;;16.30;99.90;;;;;;5074447;28;20447;-80
2022/05/12 07:45:54;;;;;;;0.30;0.30;;;16.40;99.90;;;;;;5075397;28;20397;-83
2022/05/12 07:48:19;;;;;;;0.30;0.30;;;16.40;99.90;;;;;;5075255;28;20052;-81
2022/05/12 07:50:45;;;;;;;0.20;0.20;;;16.30;99.90;;;;;;5073949;28;20131;-78
2022/05/12 07:53:11;;;;;;;0.43;0.43;;;16.50;99.90;;;;;;5074973;28;20465;-78
2022/05/12 07:55:37;;;;;;;0.77;0.77;;;16.60;99.90;;;;;;5074693;28;20128;-78
2022/05/12 07:58:04;;;;;;;7.83;2.17;;;16.70;99.90;;;;;;5074810;28;20049;-78
2022/05/12 08:00:31;;;;;;;0.30;0.30;;;17.00;99.90;;;;;;5074889;28;20048;-78
2022/05/12 08:02:57;;;;;;;;;;;16.90;99.90;;;;;;5075220;28;20040;-78
2022/05/12 08:05:24;;;;;;;0.30;0.30;;;16.90;99.90;;;;;;5074644;28;19926;-78
2022/05/12 08:07:50;;;;;;;0.30;0.30;;;17.00;99.90;;;;;;5074689;28;20084;-78
2022/05/12 08:10:16;;;;;;;0.30;0.30;;;16.90;99.90;;;;;;5074722;28;20392;-78
2022/05/12 08:12:43;;;;;;;0.30;0.30;;;16.90;99.90;;;;;;5074618;28;20049;-78
2022/05/12 08:15:09;;;;;;;0.30;0.30;;;16.90;99.90;;;;;;5073430;28;20113;-78
2022/05/12 08:17:38;;;;;;;;;;;16.70;99.90;;;;;;5075003;28;20119;-78
2022/05/12 08:20:05;;;;;;;0.20;0.20;;;16.80;99.90;;;;;;5074514;28;19928;-78
2022/05/12 08:22:32;;;;;;;0.43;0.43;;;17.00;99.90;;;;;;5074389;28;20048;-78
2022/05/12 08:24:58;;;;;;;0.30;0.30;;;17.10;99.90;;;;;;5074444;28;20040;-78
2022/05/12 08:27:24;;;;;;;0.30;0.30;;;17.20;99.90;;;;;;5074418;28;20123;-78
2022/05/12 08:29:50;;;;;;;;;;;17.20;99.90;;;;;;5074915;28;20052;-78
2022/05/12 08:32:16;;;;;;;0.30;0.30;;;17.40;99.90;;;;;;5074225;28;19920;-78
2022/05/12 08:34:42;;;;;;;0.50;0.50;;;17.60;99.90;;;;;;5074181;28;20121;-79
2022/05/12 08:37:09;;;;;;;0.30;0.30;;;17.80;99.90;;;;;;5073310;28;20045;-78
2022/05/12 08:39:35;;;;;;;0.30;0.30;;;17.90;99.90;;;;;;5074342;28;20048;-78
2022/05/12 08:42:12;;;;;;;0.30;0.30;;;17.90;99.90;;;;;;5073931;28;20053;-79
2022/05/12 08:44:40;;;;;;;0.30;0.30;;;18.00;99.90;;;;;;5074299;28;20275;-77
2022/05/12 08:47:14;;;;;;;0.50;0.50;;;18.00;99.90;;;;;;5074012;28;20059;-78
2022/05/12 08:49:44;;;;;;;0.30;0.30;;;18.20;99.90;;;;;;5074199;28;20044;-78
2022/05/12 08:52:21;;;;;;;0.20;0.20;;;18.30;99.90;;;;;;5073290;28;20045;-78
2022/05/12 08:54:56;;;;;;;0.38;0.32;;;18.40;99.90;;;;;;5074249;28;20397;-78
2022/05/12 08:57:30;;;;;;;0.20;0.20;;;18.30;99.90;;;;;;5074234;28;20459;-78
2022/05/12 08:59:57;;;;;;;0.30;0.30;;;18.20;99.90;;;;;;5073757;28;20467;-79
2022/05/12 09:02:31;;;;;;;0.73;0.73;;;18.30;99.90;;;;;;5069383;28;20144;-79
2022/05/12 09:05:06;;;;;;;0.20;0.20;;;18.50;99.90;;;;;;5068887;28;20124;-84
2022/05/12 09:07:39;;;;;;;0.30;0.30;;;18.60;99.90;;;;;;5052706;28;20056;-76
2022/05/12 09:10:20;;;;;;;0.30;0.30;;;18.60;99.90;;;;;;5053686;28;20099;-84
2022/05/12 09:12:59;;;;;;;0.20;0.20;;;18.70;99.90;;;;;;5052276;28;20084;-85
2022/05/12 09:15:30;;;;;;;0.30;0.30;;;18.80;99.90;;;;;;5052598;28;20492;-82
2022/05/12 09:18:10;;;;;;;0.20;0.20;;;18.80;99.90;;;;;;5036739;28;20037;-82
2022/05/12 09:20:36;;;;;;;0.30;0.30;;;19.10;99.90;;;;;;5053139;28;20059;-83
2022/05/12 09:23:04;;;;;;;0.70;0.70;;;19.20;99.90;;;;;;5052686;28;20053;-82
2022/05/12 09:25:43;;;;;;;0.30;0.30;;;19.10;99.90;;;;;;5053556;28;20512;-81
2022/05/12 09:28:25;;;;;;;0.20;0.20;;;18.70;99.90;;;;;;5053625;28;20135;-84
2022/05/12 09:30:51;;;;;;;0.20;0.20;;;18.20;99.90;;;;;;5068923;28;20045;-81
2022/05/12 09:33:34;;;;;;;0.30;0.30;;;18.10;99.90;;;;;;5068911;28;20158;-82
2022/05/12 09:36:06;;;;;;;0.20;0.20;;;18.20;99.90;;;;;;5053799;28;20057;-85
2022/05/12 09:38:44;;;;;;;0.30;0.30;;;18.50;99.90;;;;;;5053612;28;20080;-85
2022/05/12 09:41:22;;;;;;;0.90;0.63;;;18.80;99.90;;;;;;5069266;28;20103;-83
2022/05/12 09:43:53;;;;;;;0.20;0.20;;;19.00;99.90;;;;;;5052560;28;20088;-85
2022/05/12 09:46:31;;;;;;;0.30;0.30;;;19.10;99.90;;;;;;5052620;28;20416;-87
2022/05/12 09:49:20;;;;;;;0.20;0.20;;;19.20;99.90;;;;;;5053587;28;20496;-82
2022/05/12 09:51:47;;;;;;;0.55;0.30;;;19.20;99.90;;;;;;5068930;28;20457;-87
2022/05/12 09:54:30;;;;;;;0.30;0.30;;;19.50;99.90;;;;;;5053337;28;20049;-84
2022/05/12 09:57:12;;;;;;;0.30;0.30;;;19.70;99.90;;;;;;5052302;28;20081;-85
2022/05/12 09:59:40;;;;;;;0.28;0.28;;;19.60;99.90;;;;;;5053581;28;20049;-81
2022/05/12 10:08:25;;;;;;;0.20;0.20;;;19.70;99.30;;;;;;5052977;28;20044;-82
2022/05/12 10:11:05;;;;;;;0.20;0.20;;;19.50;99.90;;;;;;5053366;28;20080;-80
2022/05/12 10:13:50;;;;;;;0.20;0.20;;;19.50;99.90;;;;;;5056502;28;20053;-82
2022/05/12 10:16:23;;;;;;;0.35;0.35;;;19.60;99.30;;;;;;5056871;28;20126;-80
2022/05/12 10:18:56;;;;;;;0.30;0.30;;;19.70;99.20;;;;;;5055520;28;20174;-81
2022/05/12 10:21:23;;;;;;;0.20;0.20;;;19.80;97.40;;;;;;5056566;28;20147;-81
2022/05/12 10:24:03;;;;;;;0.30;0.30;;;19.90;96.60;;;;;;5072158;28;20146;-81
2022/05/12 10:26:50;;;;;;;0.20;0.20;;;19.90;95.50;;;;;;5055524;28;20106;-81
2022/05/12 10:29:55;;;;;;;0.20;0.20;;;19.80;96.60;;;;;;5055704;28;20489;-82
2022/05/12 10:32:40;;;;;;;1.85;0.50;;;19.80;97.30;;;;;;5056563;28;20044;-75
2022/05/12 10:35:24;;;;;;;0.20;0.20;;;19.90;97.10;;;;;;5056325;28;20045;-75
2022/05/12 10:38:14;;;;;;;0.30;0.30;;;20.10;96.30;;;;;;5056305;28;20045;-76
2022/05/12 10:40:48;;;;;;;0.20;0.20;;;20.10;94.40;;;;;;5056158;28;20057;-77
2022/05/12 10:43:30;;;;;;;0.20;0.20;;;20.20;96.40;;;;;;5056233;28;20040;-75
2022/05/12 10:46:21;;;;;;;0.82;0.82;;;20.20;95.90;;;;;;5056274;28;20119;-76
2022/05/12 10:49:19;;;;;;;0.20;0.20;;;20.10;94.50;;;;;;5054826;28;20148;-77
2022/05/12 10:51:57;;;;;;;;;;;20.20;96.30;;;;;;5056727;28;20045;-76
2022/05/12 10:54:45;;;;;;;0.20;0.20;;;20.30;94.50;;;;;;5056188;28;19927;-77
2022/05/12 10:57:25;;;;;;;0.20;0.20;;;20.30;93.30;;;;;;5056081;28;20135;-76
2022/05/12 11:00:03;;;;;;;0.30;0.30;;;20.30;93.40;;;;;;5056033;28;20443;-77
2022/05/12 11:02:35;;;;;;;0.30;0.30;;;20.30;93.40;;;;;;5055946;28;20526;-78
2022/05/12 11:05:26;;;;;;;0.30;0.30;;;20.40;93.80;;;;;;5055729;28;20053;-78
2022/05/12 11:08:04;;;;;;;0.30;0.30;;;20.40;92.70;;;;;;5055450;28;20493;-76
2022/05/12 11:10:31;;;;;;;;;;;20.30;92.60;;;;;;5056004;28;20056;-78
2022/05/12 11:13:01;;;;;;;;;;;20.30;92.00;;;;;;5055975;28;19921;-77
2022/05/12 11:15:31;;;;;;;;;;;20.20;91.90;;;;;;5055658;28;19927;-77
2022/05/12 11:18:04;;;;;;;;;;;20.30;92.60;;;;;;5056218;28;19968;-78
2022/05/12 11:20:32;;;;;;;;;;;20.50;94.00;;;;;;5055969;28;19931;-78
2022/05/12 11:23:05;;;;;;;;;;;20.50;92.40;;;;;;5055443;28;19921;-78
2022/05/12 11:25:37;;;;;;;;;;;20.50;90.30;;;;;;5055727;28;20019;-79
2022/05/12 11:31:00;;;;;;;;;;;20.20;88.20;;;;;;5055933;28;19928;-79
2022/05/12 11:33:28;;;;;;;;;;;20.20;88.10;;;;;;5055810;28;19920;-80
2022/05/12 11:35:54;;;;;;;;;;;20.10;89.70;;;;;;5055713;28;19921;-79
2022/05/12 11:38:35;;;;;;;;;;;20.20;90.70;;;;;;5055612;28;20331;-78
2022/05/12 11:41:01;;;;;;;;;;;20.40;91.50;;;;;;5055934;28;20062;-81
2022/05/12 11:46:45;;;;;;;;;;;20.30;89.20;;;;;;5055628;28;19972;-79
2022/05/12 11:49:26;;;;;;;;;;;19.90;90.00;;;;;;5055194;28;19924;-84
2022/05/12 11:52:05;;;;;;;;;;;19.50;90.40;;;;;;5055639;28;19920;-77
2022/05/12 11:54:33;;;;;;;;;;;19.40;91.10;;;;;;5055136;28;19967;-78
2022/05/12 11:57:00;;;;;;;;;;;19.40;91.40;;;;;;5055126;28;20333;-78
2022/05/12 11:59:26;;;;;;;;;;;19.50;90.50;;;;;;5054687;28;20372;-79
2022/05/12 12:01:54;;;;;;;;;;;19.60;92.20;;;;;;5054030;28;19928;-77
2022/05/12 12:04:38;;;;;;;;;;;19.90;91.50;;;;;;5055144;28;19925;-79
2022/05/12 12:07:05;;;;;;;;;;;20.00;91.70;;;;;;5054884;28;19959;-79
2022/05/12 12:09:36;;;;;;;;;;;20.20;88.10;;;;;;5054899;28;19963;-80
2022/05/12 12:12:02;;;;;;;;;;;20.00;88.60;;;;;;5054484;28;19943;-78
2022/05/12 12:14:43;;;;;;;;;;;19.80;89.10;;;;;;5055183;28;19983;-79
2022/05/12 12:17:10;;;;;;;;;;;19.60;91.30;;;;;;5054914;28;20342;-79
2022/05/12 12:19:46;;;;;;;;;;;19.70;91.10;;;;;;5054724;28;20015;-78
2022/05/12 12:22:40;;;;;;;;;;;20.00;89.80;;;;;;5053698;28;19921;-80
2022/05/12 12:25:08;;;;;;;;;;;20.20;89.30;;;;;;5054904;28;20331;-83
2022/05/12 12:27:52;;;;;;;;;;;20.50;88.10;;;;;;5053547;28;19920;-77
2022/05/12 12:30:21;;;;;;;;;;;20.40;86.80;;;;;;5053771;28;20349;-79
2022/05/12 12:33:06;;;;;;;;;;;20.40;88.40;;;;;;5054136;28;19968;-77
2022/05/12 12:35:47;;;;;;;;;;;20.50;88.00;;;;;;5054051;28;19921;-78
2022/05/12 12:38:33;;;;;;;;;;;20.40;90.30;;;;;;5054049;28;20360;-77
2022/05/12 12:40:59;;;;;;;;;;;20.40;90.10;;;;;;5054352;28;19921;-82
2022/05/12 12:43:37;;;;;;;;;;;20.30;88.90;;;;;;5053898;28;19990;-77
2022/05/12 12:46:18;;;;;;;;;;;20.40;88.90;;;;;;5054449;28;20012;-76
2022/05/12 12:48:48;;;;;;;;;;;20.10;86.90;;;;;;5054404;28;19920;-77
2022/05/12 12:51:25;;;;;;;;;;;20.30;90.10;;;;;;5054121;28;19928;-77
2022/05/12 12:56:35;;;;;;;;;;;20.60;85.10;;;;;;5056878;28;20438;-78
2022/05/12 12:59:01;;;;;;;;;;;20.70;85.70;;;;;;5074352;28;19966;-77
2022/05/12 13:01:40;;;;;;;;;;;20.80;87.20;;;;;;5074265;28;19920;-78
2022/05/12 13:04:07;;;;;;;;;;;20.70;88.00;;;;;;5074272;28;19927;-80
2022/05/12 13:06:37;;;;;;;;;;;20.40;85.00;;;;;;5073396;28;19928;-77
2022/05/12 13:09:09;;;;;;;;;;;20.10;85.00;;;;;;5074225;28;20371;-78
2022/05/12 13:11:38;;;;;;;;;;;20.30;83.70;;;;;;5074228;28;19924;-78
2022/05/12 13:14:05;;;;;;;;;;;20.20;84.50;;;;;;5073886;28;19921;-78
2022/05/12 13:16:35;;;;;;;;;;;20.40;85.70;;;;;;5074110;28;19943;-76
2022/05/12 13:19:01;;;;;;;;;;;20.70;85.00;;;;;;5074059;28;19994;-78
2022/05/12 13:21:32;;;;;;;;;;;20.80;84.70;;;;;;5074080;28;20363;-78
2022/05/12 13:24:00;;;;;;;;;;;21.00;85.20;;;;;;5074344;28;20353;-77
2022/05/12 13:26:26;;;;;;;;;;;20.90;82.50;;;;;;5074276;28;19970;-78
2022/05/12 13:28:51;;;;;;;;;;;20.80;84.60;;;;;;5074009;28;19973;-80
2022/05/12 13:31:24;;;;;;;;;;;20.60;83.70;;;;;;5073916;28;19921;-78
2022/05/12 13:33:53;;;;;;;;;;;20.50;84.70;;;;;;5073932;28;19920;-77
2022/05/12 13:36:22;;;;;;;;;;;20.60;84.70;;;;;;5072435;28;19966;-78
2022/05/12 13:38:47;;;;;;;;;;;20.60;84.30;;;;;;5072839;28;19947;-79
2022/05/12 13:46:26;;;;;;;3.30;0.77;;;21.30;85.20;;;;;;5090962;27;20746;-76
2022/05/12 13:49:00;;;;;;;25.98;1.38;;;21.90;83.10;;;;;;5090905;28;20554;-75
2022/05/12 13:51:55;;;;;;;108.93;5.28;;;21.80;82.20;;;;;;5090701;28;20404;-75
2022/05/12 13:54:27;;;;;;;109.22;5.72;;;21.90;82.40;;;;;;5090849;28;20040;-77